createdAt,value
2023-02-26T00:00:46.355Z,2.08
2023-02-26T00:01:49.276Z,1.98
2023-02-26T00:02:52.188Z,1.48
2023-02-26T00:03:57.347Z,1.75
2023-02-26T00:05:00.101Z,2.00
2023-02-26T00:06:02.825Z,1.80
2023-02-26T00:07:06.125Z,1.58
2023-02-26T00:08:08.795Z,1.73
2023-02-26T00:09:11.304Z,2.10
2023-02-26T00:10:16.568Z,2.00
2023-02-26T00:11:19.826Z,1.38
2023-02-26T00:12:22.842Z,1.92
2023-02-26T00:13:25.930Z,1.80
2023-02-26T00:14:29.284Z,1.95
2023-02-26T00:15:32.480Z,1.80
2023-02-26T00:16:36.690Z,1.75
2023-02-26T00:18:08.464Z,1.85
2023-02-26T00:19:12.189Z,1.90
2023-02-26T00:20:17.012Z,2.35
2023-02-26T00:21:21.820Z,1.88
2023-02-26T00:22:24.787Z,2.08
2023-02-26T00:23:27.635Z,2.05
2023-02-26T00:24:30.536Z,1.85
2023-02-26T00:25:33.087Z,1.77
2023-02-26T00:26:35.954Z,1.70
2023-02-26T00:27:38.937Z,2.38
2023-02-26T00:28:41.961Z,1.90
2023-02-26T00:29:45.797Z,1.70
2023-02-26T00:30:48.729Z,1.75
2023-02-26T00:31:51.975Z,1.85
2023-02-26T00:32:54.919Z,1.92
2023-02-26T00:33:58.399Z,1.80
2023-02-26T00:35:02.408Z,1.70
2023-02-26T00:36:28.129Z,1.67
2023-02-26T00:38:02.076Z,1.75
2023-02-26T00:39:15.641Z,1.83
2023-02-26T00:40:33.727Z,1.98
2023-02-26T00:41:38.893Z,1.95
2023-02-26T00:42:41.826Z,1.58
2023-02-26T00:43:44.700Z,2.00
2023-02-26T00:44:47.640Z,1.88
2023-02-26T00:46:12.773Z,1.60
2023-02-26T00:47:36.109Z,1.67
2023-02-26T00:49:05.706Z,2.05
2023-02-26T00:50:20.636Z,1.90
2023-02-26T00:51:43.061Z,1.88
2023-02-26T00:53:01.263Z,2.38
2023-02-26T00:54:24.939Z,2.10
2023-02-26T00:55:28.584Z,2.15
2023-02-26T00:56:32.391Z,1.88
2023-02-26T00:57:35.748Z,1.95
2023-02-26T00:58:38.356Z,1.80
2023-02-26T00:59:40.841Z,1.98
2023-02-26T01:00:43.737Z,2.08
2023-02-26T01:01:46.878Z,1.98
2023-02-26T01:02:51.011Z,2.15
2023-02-26T01:03:55.511Z,2.22
2023-02-26T01:04:58.412Z,1.80
2023-02-26T01:06:03.203Z,1.90
2023-02-26T01:07:05.927Z,2.05
2023-02-26T01:08:20.438Z,2.22
2023-02-26T01:09:30.428Z,1.90
2023-02-26T01:10:33.821Z,2.28
2023-02-26T01:11:37.414Z,1.90
2023-02-26T01:12:40.745Z,1.70
2023-02-26T01:13:45.345Z,1.77
2023-02-26T01:14:48.529Z,1.92
2023-02-26T01:15:58.172Z,1.70
2023-02-26T01:17:04.146Z,1.63
2023-02-26T01:18:14.403Z,1.90
2023-02-26T01:19:20.057Z,1.88
2023-02-26T01:20:25.632Z,1.98
2023-02-26T01:21:36.620Z,1.75
2023-02-26T01:22:52.835Z,1.85
2023-02-26T01:23:55.511Z,1.92
2023-02-26T01:25:07.562Z,1.63
2023-02-26T01:26:24.617Z,1.92
2023-02-26T01:27:30.355Z,1.75
2023-02-26T01:28:33.623Z,2.05
2023-02-26T01:29:36.464Z,1.90
2023-02-26T01:30:40.361Z,2.08
2023-02-26T01:31:58.353Z,1.50
2023-02-26T01:33:01.076Z,2.35
2023-02-26T01:34:10.032Z,1.80
2023-02-26T01:35:12.760Z,1.92
2023-02-26T01:36:39.724Z,1.55
2023-02-26T01:37:54.487Z,1.83
2023-02-26T01:38:57.151Z,1.60
2023-02-26T01:40:09.850Z,1.88
2023-02-26T01:41:27.412Z,2.03
2023-02-26T01:42:32.799Z,1.65
2023-02-26T01:44:22.852Z,2.30
2023-02-26T01:45:32.168Z,1.50
2023-02-26T01:46:52.707Z,1.90
2023-02-26T01:48:05.676Z,2.28
2023-02-26T01:49:14.845Z,2.30
2023-02-26T01:50:30.108Z,2.33
2023-02-26T01:51:48.097Z,2.25
2023-02-26T01:52:50.806Z,2.17
2023-02-26T01:53:53.547Z,1.70
2023-02-26T01:54:56.074Z,1.92
2023-02-26T01:56:00.857Z,2.03
2023-02-26T01:57:15.335Z,2.05
2023-02-26T01:58:19.999Z,2.08
2023-02-26T01:59:24.778Z,2.28
2023-02-26T02:00:27.699Z,1.92
2023-02-26T02:01:30.357Z,1.60
2023-02-26T02:02:33.530Z,2.00
2023-02-26T02:03:39.439Z,2.05
2023-02-26T02:04:43.369Z,1.83
2023-02-26T02:05:56.090Z,2.05
2023-02-26T02:07:00.185Z,2.15
2023-02-26T02:08:02.731Z,1.70
2023-02-26T02:09:07.232Z,2.20
2023-02-26T02:10:11.358Z,2.03
2023-02-26T02:11:15.194Z,1.88
2023-02-26T02:12:35.747Z,1.90
2023-02-26T02:14:00.794Z,2.55
2023-02-26T02:15:06.519Z,1.85
2023-02-26T02:16:31.759Z,2.30
2023-02-26T02:17:56.239Z,2.20
2023-02-26T02:19:35.665Z,1.55
2023-02-26T02:21:16.889Z,2.20
2023-02-26T02:22:25.326Z,2.08
2023-02-26T02:23:43.584Z,2.67
2023-02-26T02:25:13.310Z,2.00
2023-02-26T02:26:56.508Z,2.03
2023-02-26T02:28:17.766Z,1.90
2023-02-26T02:29:41.978Z,2.53
2023-02-26T02:31:02.916Z,2.38
2023-02-26T02:32:10.038Z,2.42
2023-02-26T02:33:15.571Z,2.35
2023-02-26T02:34:27.495Z,2.10
2023-02-26T02:35:34.887Z,2.38
2023-02-26T02:36:41.648Z,2.75
2023-02-26T02:37:48.376Z,2.47
2023-02-26T02:38:59.577Z,2.50
2023-02-26T02:40:11.716Z,2.45
2023-02-26T02:41:25.189Z,2.70
2023-02-26T02:42:47.572Z,2.75
2023-02-26T02:43:51.057Z,2.42
2023-02-26T02:45:17.651Z,2.97
2023-02-26T02:46:31.984Z,2.70
2023-02-26T02:47:37.752Z,2.80
2023-02-26T02:48:47.948Z,3.17
2023-02-26T02:50:13.480Z,2.72
2023-02-26T02:51:22.735Z,2.88
2023-02-26T02:52:36.223Z,2.90
2023-02-26T02:53:44.518Z,2.88
2023-02-26T02:54:48.277Z,3.00
2023-02-26T02:56:19.989Z,3.00
2023-02-26T02:57:36.208Z,2.83
2023-02-26T02:58:52.961Z,2.83
2023-02-26T02:59:59.613Z,2.72
2023-02-26T03:01:06.256Z,3.05
2023-02-26T03:02:14.319Z,2.28
2023-02-26T03:03:39.685Z,2.47
2023-02-26T03:04:43.129Z,2.40
2023-02-26T03:05:45.733Z,2.30
2023-02-26T03:06:50.168Z,2.33
2023-02-26T03:08:01.976Z,2.42
2023-02-26T03:09:06.317Z,2.50
2023-02-26T03:10:09.997Z,2.40
2023-02-26T03:11:12.906Z,2.35
2023-02-26T03:12:16.400Z,2.15
2023-02-26T03:13:22.297Z,2.53
2023-02-26T03:14:30.832Z,2.58
2023-02-26T03:15:51.561Z,2.72
2023-02-26T03:17:16.041Z,2.92
2023-02-26T03:18:30.492Z,2.70
2023-02-26T03:19:41.927Z,3.05
2023-02-26T03:21:00.893Z,2.92
2023-02-26T03:22:09.807Z,3.20
2023-02-26T03:24:07.846Z,3.28
2023-02-26T03:25:17.210Z,2.40
2023-02-26T03:26:28.664Z,3.40
2023-02-26T03:27:53.660Z,2.80
2023-02-26T03:29:06.900Z,2.95
2023-02-26T03:30:30.278Z,2.63
2023-02-26T03:32:09.502Z,3.08
2023-02-26T03:33:20.113Z,3.00
2023-02-26T03:34:30.740Z,2.63
2023-02-26T03:36:42.702Z,2.33
2023-02-26T03:37:58.381Z,3.38
2023-02-26T03:39:26.004Z,2.55
2023-02-26T03:40:40.140Z,2.38
2023-02-26T03:41:50.460Z,2.38
2023-02-26T03:43:16.251Z,2.20
2023-02-26T03:44:29.140Z,2.67
2023-02-26T03:45:34.637Z,2.80
2023-02-26T03:46:41.646Z,3.10
2023-02-26T03:47:46.865Z,2.38
2023-02-26T03:48:51.401Z,3.30
2023-02-26T03:49:59.232Z,2.13
2023-02-26T03:51:06.742Z,2.60
2023-02-26T03:52:23.871Z,2.88
2023-02-26T03:54:02.883Z,2.70
2023-02-26T03:55:18.397Z,2.33
2023-02-26T03:56:47.338Z,2.65
2023-02-26T03:58:10.187Z,2.65
2023-02-26T03:59:30.495Z,2.35
2023-02-26T04:01:18.782Z,2.10
2023-02-26T04:02:28.624Z,2.08
2023-02-26T04:04:02.411Z,2.33
2023-02-26T04:05:13.172Z,2.00
2023-02-26T04:06:15.949Z,1.70
2023-02-26T04:07:19.263Z,2.00
2023-02-26T04:08:22.712Z,1.95
2023-02-26T04:09:26.116Z,1.92
2023-02-26T04:11:11.470Z,1.90
2023-02-26T04:12:15.179Z,2.10
2023-02-26T04:13:22.874Z,2.15
2023-02-26T04:14:26.398Z,2.05
2023-02-26T04:15:29.922Z,2.05
2023-02-26T04:16:32.776Z,2.22
2023-02-26T04:17:35.347Z,2.05
2023-02-26T04:18:38.107Z,1.80
2023-02-26T04:19:42.576Z,2.28
2023-02-26T04:20:45.315Z,2.08
2023-02-26T04:21:48.073Z,2.00
2023-02-26T04:22:51.975Z,2.10
2023-02-26T04:23:57.977Z,2.30
2023-02-26T04:25:00.884Z,1.98
2023-02-26T04:26:03.652Z,1.73
2023-02-26T04:27:08.995Z,1.35
2023-02-26T04:28:11.844Z,1.90
2023-02-26T04:29:14.765Z,1.70
2023-02-26T04:30:17.812Z,1.67
2023-02-26T04:31:20.760Z,1.52
2023-02-26T04:32:23.593Z,1.52
2023-02-26T04:33:27.257Z,1.58
2023-02-26T04:34:30.495Z,1.75
2023-02-26T04:35:33.715Z,1.75
2023-02-26T04:36:36.445Z,1.98
2023-02-26T04:37:39.326Z,1.65
2023-02-26T04:38:42.462Z,1.60
2023-02-26T04:39:45.953Z,1.65
2023-02-26T04:40:50.816Z,1.80
2023-02-26T04:41:54.337Z,1.40
2023-02-26T04:42:57.311Z,1.60
2023-02-26T04:44:02.579Z,1.50
2023-02-26T04:45:07.493Z,1.67
2023-02-26T04:46:12.525Z,1.70
2023-02-26T04:47:15.352Z,1.80
2023-02-26T04:48:19.043Z,1.30
2023-02-26T04:49:22.346Z,1.70
2023-02-26T04:50:25.134Z,1.58
2023-02-26T04:51:29.683Z,1.35
2023-02-26T04:52:32.716Z,1.20
2023-02-26T04:53:35.613Z,1.63
2023-02-26T04:54:38.434Z,1.40
2023-02-26T04:55:41.454Z,1.20
2023-02-26T04:56:44.013Z,1.38
2023-02-26T04:57:46.926Z,1.45
2023-02-26T04:58:49.752Z,1.50
2023-02-26T04:59:58.186Z,1.40
2023-02-26T05:01:06.045Z,1.48
2023-02-26T05:02:08.874Z,1.80
2023-02-26T05:03:16.145Z,1.10
2023-02-26T05:04:18.864Z,1.42
2023-02-26T05:05:26.007Z,1.48
2023-02-26T05:06:28.762Z,1.20
2023-02-26T05:07:31.656Z,0.93
2023-02-26T05:08:34.255Z,1.08
2023-02-26T05:09:36.887Z,1.05
2023-02-26T05:10:39.798Z,1.08
2023-02-26T05:11:42.397Z,1.10
2023-02-26T05:12:45.244Z,0.98
2023-02-26T05:13:47.969Z,1.40
2023-02-26T05:14:50.790Z,1.40
2023-02-26T05:15:55.118Z,1.27
2023-02-26T05:16:58.859Z,1.10
2023-02-26T05:18:01.560Z,1.60
2023-02-26T05:19:05.170Z,1.02
2023-02-26T05:20:10.349Z,1.20
2023-02-26T05:21:13.262Z,1.00
2023-02-26T05:22:15.988Z,1.10
2023-02-26T05:23:18.592Z,1.40
2023-02-26T05:24:21.429Z,0.98
2023-02-26T05:25:24.277Z,1.10
2023-02-26T05:26:28.095Z,1.00
2023-02-26T05:27:31.165Z,1.20
2023-02-26T05:28:34.222Z,1.25
2023-02-26T05:29:36.987Z,0.82
2023-02-26T05:30:41.305Z,0.95
2023-02-26T05:31:43.972Z,1.02
2023-02-26T05:32:46.733Z,0.77
2023-02-26T05:33:49.536Z,1.20
2023-02-26T05:34:52.287Z,1.00
2023-02-26T05:35:55.797Z,1.02
2023-02-26T05:36:58.892Z,0.80
2023-02-26T05:38:01.595Z,0.90
2023-02-26T05:39:04.372Z,0.75
2023-02-26T05:40:12.815Z,1.10
2023-02-26T05:41:15.402Z,1.02
2023-02-26T05:42:18.015Z,1.15
2023-02-26T05:43:20.788Z,1.20
2023-02-26T05:44:24.003Z,1.00
2023-02-26T05:45:26.770Z,1.02
2023-02-26T05:46:29.681Z,1.00
2023-02-26T05:47:36.561Z,0.82
2023-02-26T05:48:39.264Z,0.90
2023-02-26T05:49:41.973Z,1.05
2023-02-26T05:50:44.821Z,0.98
2023-02-26T05:51:47.475Z,1.00
2023-02-26T05:52:50.251Z,1.08
2023-02-26T05:53:53.004Z,1.08
2023-02-26T05:54:56.230Z,1.15
2023-02-26T05:55:59.139Z,1.10
2023-02-26T05:57:01.969Z,0.93
2023-02-26T05:58:04.780Z,1.33
2023-02-26T05:59:07.470Z,0.90
2023-02-26T06:00:11.211Z,1.00
2023-02-26T06:01:16.588Z,1.30
2023-02-26T06:02:19.456Z,1.00
2023-02-26T06:03:22.072Z,1.10
2023-02-26T06:04:24.921Z,1.17
2023-02-26T06:05:27.546Z,0.93
2023-02-26T06:06:30.112Z,1.38
2023-02-26T06:07:32.749Z,1.20
2023-02-26T06:08:35.366Z,0.98
2023-02-26T06:09:38.323Z,1.23
2023-02-26T06:10:40.867Z,1.17
2023-02-26T06:11:43.511Z,1.08
2023-02-26T06:12:46.291Z,1.15
2023-02-26T06:13:49.982Z,1.08
2023-02-26T06:14:52.801Z,1.05
2023-02-26T06:15:55.338Z,0.98
2023-02-26T06:16:58.060Z,1.10
2023-02-26T06:18:00.819Z,1.38
2023-02-26T06:19:03.819Z,0.90
2023-02-26T06:20:07.276Z,0.95
2023-02-26T06:21:09.901Z,0.80
2023-02-26T06:22:12.702Z,1.10
2023-02-26T06:23:15.500Z,1.02
2023-02-26T06:24:18.348Z,1.17
2023-02-26T06:25:21.417Z,0.90
2023-02-26T06:26:26.879Z,1.05
2023-02-26T06:27:29.706Z,1.20
2023-02-26T06:28:32.623Z,1.38
2023-02-26T06:29:37.392Z,1.17
2023-02-26T06:30:39.999Z,1.40
2023-02-26T06:31:42.940Z,1.08
2023-02-26T06:32:45.649Z,1.02
2023-02-26T06:33:48.530Z,1.30
2023-02-26T06:34:51.151Z,1.15
2023-02-26T06:35:53.928Z,1.52
2023-02-26T06:36:56.594Z,0.90
2023-02-26T06:37:59.234Z,1.10
2023-02-26T06:39:02.219Z,1.10
2023-02-26T06:40:06.184Z,1.20
2023-02-26T06:41:09.072Z,1.50
2023-02-26T06:42:11.621Z,1.30
2023-02-26T06:43:14.726Z,1.35
2023-02-26T06:44:17.337Z,1.45
2023-02-26T06:45:20.127Z,1.10
2023-02-26T06:46:23.052Z,1.30
2023-02-26T06:47:25.852Z,1.35
2023-02-26T06:48:28.822Z,1.35
2023-02-26T06:49:31.555Z,1.40
2023-02-26T06:50:34.514Z,1.13
2023-02-26T06:51:37.198Z,1.50
2023-02-26T06:52:39.834Z,1.17
2023-02-26T06:53:42.615Z,1.42
2023-02-26T06:54:45.789Z,1.65
2023-02-26T06:55:51.406Z,1.20
2023-02-26T06:56:57.749Z,1.10
2023-02-26T06:58:00.461Z,1.13
2023-02-26T06:59:03.231Z,1.25
2023-02-26T07:00:07.279Z,0.90
2023-02-26T07:01:10.515Z,0.98
2023-02-26T07:02:18.811Z,1.20
2023-02-26T07:03:21.516Z,1.27
2023-02-26T07:04:24.348Z,1.20
2023-02-26T07:05:27.137Z,1.58
2023-02-26T07:06:29.823Z,1.27
2023-02-26T07:07:32.634Z,1.50
2023-02-26T07:08:35.699Z,1.00
2023-02-26T07:09:38.482Z,1.00
2023-02-26T07:10:41.791Z,1.08
2023-02-26T07:11:44.497Z,1.27
2023-02-26T07:12:48.520Z,1.10
2023-02-26T07:13:52.109Z,0.98
2023-02-26T07:14:54.739Z,1.23
2023-02-26T07:15:57.830Z,0.90
2023-02-26T07:17:01.532Z,1.20
2023-02-26T07:18:04.496Z,1.08
2023-02-26T07:19:07.021Z,0.98
2023-02-26T07:20:10.496Z,1.30
2023-02-26T07:21:13.388Z,1.10
2023-02-26T07:22:16.831Z,1.23
2023-02-26T07:23:19.548Z,1.50
2023-02-26T07:24:23.147Z,1.48
2023-02-26T07:25:25.746Z,1.40
2023-02-26T07:26:28.596Z,1.13
2023-02-26T07:27:33.346Z,1.40
2023-02-26T07:28:36.310Z,1.52
2023-02-26T07:29:39.233Z,1.48
2023-02-26T07:30:42.957Z,1.40
2023-02-26T07:31:46.173Z,1.30
2023-02-26T07:32:49.098Z,1.38
2023-02-26T07:33:51.816Z,1.20
2023-02-26T07:34:54.715Z,1.88
2023-02-26T07:35:57.520Z,2.10
2023-02-26T07:37:00.351Z,1.95
2023-02-26T07:38:03.302Z,2.08
2023-02-26T07:39:06.037Z,1.58
2023-02-26T07:40:09.419Z,1.88
2023-02-26T07:41:12.047Z,1.30
2023-02-26T07:42:14.800Z,1.30
2023-02-26T07:43:18.056Z,1.48
2023-02-26T07:44:20.841Z,1.42
2023-02-26T07:45:23.755Z,0.80
2023-02-26T07:46:26.807Z,1.10
2023-02-26T07:47:30.572Z,1.10
2023-02-26T07:48:33.250Z,1.13
2023-02-26T07:49:35.961Z,0.95
2023-02-26T07:50:38.573Z,1.35
2023-02-26T07:51:45.875Z,1.25
2023-02-26T07:52:48.757Z,0.98
2023-02-26T07:53:51.435Z,1.13
2023-02-26T07:54:54.088Z,1.00
2023-02-26T07:55:56.736Z,1.00
2023-02-26T07:56:59.397Z,1.13
2023-02-26T07:58:02.365Z,1.25
2023-02-26T07:59:05.465Z,1.13
2023-02-26T08:00:09.913Z,1.23
2023-02-26T08:01:15.510Z,1.13
2023-02-26T08:02:18.993Z,1.20
2023-02-26T08:03:21.862Z,1.00
2023-02-26T08:04:24.995Z,1.20
2023-02-26T08:05:30.065Z,1.05
2023-02-26T08:06:32.881Z,1.05
2023-02-26T08:07:35.829Z,1.00
2023-02-26T08:08:38.466Z,1.30
2023-02-26T08:09:41.326Z,1.13
2023-02-26T08:10:44.139Z,1.50
2023-02-26T08:11:47.764Z,1.20
2023-02-26T08:12:50.559Z,1.40
2023-02-26T08:13:53.898Z,1.30
2023-02-26T08:14:56.565Z,1.30
2023-02-26T08:15:59.320Z,1.38
2023-02-26T08:17:02.075Z,1.40
2023-02-26T08:18:05.052Z,1.25
2023-02-26T08:19:07.990Z,1.20
2023-02-26T08:20:12.079Z,1.58
2023-02-26T08:21:15.000Z,1.33
2023-02-26T08:22:17.704Z,1.60
2023-02-26T08:23:20.505Z,1.75
2023-02-26T08:24:24.581Z,1.20
2023-02-26T08:25:27.389Z,2.08
2023-02-26T08:26:30.012Z,1.35
2023-02-26T08:27:32.680Z,1.77
2023-02-26T08:28:35.666Z,1.67
2023-02-26T08:29:38.290Z,1.48
2023-02-26T08:30:42.362Z,1.15
2023-02-26T08:31:45.274Z,1.58
2023-02-26T08:32:49.885Z,1.50
2023-02-26T08:33:52.555Z,1.50
2023-02-26T08:34:55.705Z,1.58
2023-02-26T08:35:59.092Z,1.50
2023-02-26T08:37:01.937Z,1.90
2023-02-26T08:38:04.701Z,1.65
2023-02-26T08:39:07.641Z,1.75
2023-02-26T08:40:12.040Z,1.50
2023-02-26T08:41:16.331Z,1.65
2023-02-26T08:42:20.535Z,1.70
2023-02-26T08:43:23.860Z,1.40
2023-02-26T08:44:26.562Z,1.63
2023-02-26T08:45:29.181Z,1.95
2023-02-26T08:46:31.841Z,1.48
2023-02-26T08:47:39.401Z,1.70
2023-02-26T08:48:42.526Z,1.30
2023-02-26T08:49:45.117Z,2.03
2023-02-26T08:50:48.459Z,1.80
2023-02-26T08:51:51.092Z,1.73
2023-02-26T08:52:53.967Z,1.52
2023-02-26T08:53:57.266Z,1.48
2023-02-26T08:54:59.975Z,1.60
2023-02-26T08:56:02.535Z,1.63
2023-02-26T08:57:05.249Z,1.45
2023-02-26T08:58:07.986Z,1.30
2023-02-26T08:59:13.054Z,1.92
2023-02-26T09:00:17.024Z,1.50
2023-02-26T09:01:19.952Z,1.58
2023-02-26T09:02:22.752Z,1.90
2023-02-26T09:03:25.562Z,2.00
2023-02-26T09:04:31.015Z,2.22
2023-02-26T09:05:34.018Z,2.40
2023-02-26T09:06:37.270Z,2.45
2023-02-26T09:07:40.179Z,2.60
2023-02-26T09:08:42.772Z,2.47
2023-02-26T09:09:45.387Z,2.00
2023-02-26T09:10:48.398Z,3.03
2023-02-26T09:11:51.093Z,3.20
2023-02-26T09:12:53.918Z,1.95
2023-02-26T09:13:59.015Z,1.90
2023-02-26T09:15:01.907Z,2.00
2023-02-26T09:16:05.479Z,2.42
2023-02-26T09:17:08.155Z,2.30
2023-02-26T09:18:15.584Z,2.50
2023-02-26T09:19:19.455Z,2.55
2023-02-26T09:20:22.289Z,2.33
2023-02-26T09:21:25.045Z,3.15
2023-02-26T09:22:27.803Z,2.20
2023-02-26T09:23:30.377Z,2.33
2023-02-26T09:24:33.121Z,2.53
2023-02-26T09:25:36.062Z,2.47
2023-02-26T09:26:38.842Z,2.65
2023-02-26T09:27:41.558Z,2.22
2023-02-26T09:28:44.444Z,1.67
2023-02-26T09:29:47.164Z,2.50
2023-02-26T09:30:56.016Z,2.35
2023-02-26T09:31:58.939Z,2.17
2023-02-26T09:33:01.595Z,1.67
2023-02-26T09:34:04.205Z,2.55
2023-02-26T09:35:07.482Z,2.47
2023-02-26T09:36:10.264Z,2.10
2023-02-26T09:37:13.015Z,2.45
2023-02-26T09:38:18.193Z,2.13
2023-02-26T09:39:20.863Z,3.22
2023-02-26T09:40:23.481Z,4.07
2023-02-26T09:41:30.441Z,4.18
2023-02-26T09:42:49.393Z,3.30
2023-02-26T09:44:02.617Z,2.15
2023-02-26T09:45:08.189Z,2.00
2023-02-26T09:46:32.492Z,1.55
2023-02-26T09:47:46.747Z,2.20
2023-02-26T09:48:53.365Z,2.10
2023-02-26T09:50:06.072Z,1.50
2023-02-26T09:51:14.128Z,2.25
2023-02-26T09:52:19.056Z,1.65
2023-02-26T09:53:35.890Z,1.52
2023-02-26T09:54:52.585Z,1.38
2023-02-26T09:56:05.046Z,1.38
2023-02-26T09:57:10.951Z,1.30
2023-02-26T09:58:36.679Z,1.35
2023-02-26T09:59:39.504Z,1.55
2023-02-26T10:00:58.003Z,1.25
2023-02-26T10:02:28.734Z,1.30
2023-02-26T10:03:38.133Z,1.45
2023-02-26T10:04:52.797Z,1.10
2023-02-26T10:06:26.033Z,1.30
2023-02-26T10:07:46.180Z,1.08
2023-02-26T10:09:13.447Z,1.10
2023-02-26T10:10:33.875Z,1.45
2023-02-26T10:11:48.460Z,2.08
2023-02-26T10:12:52.107Z,1.35
2023-02-26T10:14:01.719Z,1.60
2023-02-26T10:15:09.644Z,1.70
2023-02-26T10:16:16.177Z,1.70
2023-02-26T10:17:34.293Z,1.52
2023-02-26T10:18:42.751Z,1.58
2023-02-26T10:19:49.382Z,1.35
2023-02-26T10:21:16.485Z,1.70
2023-02-26T10:22:33.344Z,1.60
2023-02-26T10:23:46.320Z,1.20
2023-02-26T10:24:58.046Z,1.35
2023-02-26T10:26:14.203Z,1.08
2023-02-26T10:27:21.103Z,1.20
2023-02-26T10:28:55.164Z,1.25
2023-02-26T10:30:56.000Z,1.33
2023-02-26T10:32:21.691Z,1.40
2023-02-26T10:33:33.322Z,1.45
2023-02-26T10:34:52.133Z,1.63
2023-02-26T10:35:59.438Z,1.40
2023-02-26T10:37:11.059Z,1.15
2023-02-26T10:38:18.110Z,1.63
2023-02-26T10:39:35.477Z,1.13
2023-02-26T10:41:00.064Z,1.42
2023-02-26T10:42:07.065Z,1.50
2023-02-26T10:43:26.693Z,1.67
2023-02-26T10:44:51.821Z,1.58
2023-02-26T10:46:17.695Z,1.70
2023-02-26T10:47:38.673Z,1.85
2023-02-26T10:51:17.324Z,1.83
2023-02-26T10:52:23.967Z,2.03
2023-02-26T10:53:28.016Z,1.70
2023-02-26T10:54:41.935Z,2.25
2023-02-26T10:56:00.099Z,1.67
2023-02-26T10:57:04.105Z,1.67
2023-02-26T10:58:14.476Z,1.70
2023-02-26T10:59:17.223Z,1.60
2023-02-26T11:00:21.089Z,1.85
2023-02-26T11:01:26.012Z,1.65
2023-02-26T11:02:41.243Z,1.70
2023-02-26T11:03:47.410Z,1.70
2023-02-26T11:04:59.175Z,1.08
2023-02-26T11:06:08.897Z,2.10
2023-02-26T11:07:14.243Z,1.98
2023-02-26T11:08:40.057Z,1.60
2023-02-26T11:09:46.153Z,2.38
2023-02-26T11:10:59.818Z,1.60
2023-02-26T11:12:10.907Z,2.55
2023-02-26T11:13:13.683Z,1.90
2023-02-26T11:14:16.464Z,1.85
2023-02-26T11:15:21.955Z,1.73
2023-02-26T11:16:24.948Z,2.30
2023-02-26T11:17:32.385Z,1.67
2023-02-26T11:18:44.730Z,2.15
2023-02-26T11:20:00.313Z,1.90
2023-02-26T11:21:05.490Z,2.33
2023-02-26T11:22:11.697Z,1.42
2023-02-26T11:23:17.915Z,2.13
2023-02-26T11:24:33.411Z,1.90
2023-02-26T11:25:37.337Z,1.63
2023-02-26T11:26:45.120Z,1.40
2023-02-26T11:27:49.752Z,1.67
2023-02-26T11:28:55.267Z,1.00
2023-02-26T11:30:04.165Z,1.10
2023-02-26T11:31:11.418Z,1.15
2023-02-26T11:32:21.789Z,1.30
2023-02-26T11:33:29.169Z,1.15
2023-02-26T11:34:32.410Z,1.17
2023-02-26T11:35:35.068Z,1.05
2023-02-26T11:36:41.184Z,0.85
2023-02-26T11:37:50.022Z,1.38
2023-02-26T11:38:58.247Z,1.30
2023-02-26T11:40:11.079Z,1.45
2023-02-26T11:41:14.291Z,1.13
2023-02-26T11:42:18.413Z,1.02
2023-02-26T11:43:22.660Z,1.23
2023-02-26T11:44:30.858Z,1.60
2023-02-26T11:45:36.483Z,2.35
2023-02-26T11:46:53.161Z,1.10
2023-02-26T11:48:14.475Z,1.30
2023-02-26T11:49:18.782Z,1.50
2023-02-26T11:50:26.164Z,1.20
2023-02-26T11:51:29.917Z,1.35
2023-02-26T11:52:40.864Z,1.58
2023-02-26T11:53:54.326Z,1.52
2023-02-26T11:55:02.820Z,1.65
2023-02-26T11:56:14.070Z,0.77
2023-02-26T11:57:25.712Z,0.95
2023-02-26T11:58:32.330Z,1.25
2023-02-26T11:59:35.004Z,1.15
2023-02-26T12:00:38.651Z,1.00
2023-02-26T12:01:44.625Z,1.20
2023-02-26T12:02:47.186Z,1.27
2023-02-26T12:03:52.831Z,1.30
2023-02-26T12:04:58.554Z,1.25
2023-02-26T12:06:02.202Z,1.55
2023-02-26T12:07:04.692Z,1.42
2023-02-26T12:08:26.797Z,1.33
2023-02-26T12:09:29.680Z,1.48
2023-02-26T12:10:45.394Z,1.17
2023-02-26T12:12:06.174Z,1.30
2023-02-26T12:13:31.645Z,1.45
2023-02-26T12:14:49.003Z,1.17
2023-02-26T12:16:24.192Z,1.20
2023-02-26T12:17:29.151Z,1.23
2023-02-26T12:19:07.440Z,1.58
2023-02-26T12:20:28.643Z,1.35
2023-02-26T12:22:08.295Z,1.58
2023-02-26T12:23:34.401Z,1.52
2023-02-26T12:25:04.503Z,1.67
2023-02-26T12:26:22.502Z,1.45
2023-02-26T12:28:02.043Z,1.38
2023-02-26T12:29:23.960Z,1.38
2023-02-26T12:30:51.152Z,0.93
2023-02-26T12:32:47.693Z,1.30
2023-02-26T12:34:20.324Z,1.35
2023-02-26T12:35:45.449Z,1.08
2023-02-26T12:37:18.936Z,1.23
2023-02-26T12:38:47.362Z,1.33
2023-02-26T12:40:14.505Z,1.40
2023-02-26T12:41:40.622Z,1.20
2023-02-26T12:43:01.776Z,1.23
2023-02-26T12:44:17.418Z,1.60
2023-02-26T12:45:24.515Z,1.38
2023-02-26T12:46:52.033Z,1.95
2023-02-26T12:48:16.445Z,1.50
2023-02-26T12:49:24.828Z,1.60
2023-02-26T12:50:37.042Z,1.30
2023-02-26T12:51:51.746Z,1.63
2023-02-26T12:53:32.276Z,2.20
2023-02-26T12:54:54.101Z,1.50
2023-02-26T12:55:59.388Z,1.20
2023-02-26T12:57:20.989Z,1.10
2023-02-26T12:59:05.054Z,1.63
2023-02-26T13:00:33.083Z,1.73
2023-02-26T13:02:01.498Z,1.48
2023-02-26T13:03:27.302Z,1.70
2023-02-26T13:04:48.504Z,1.33
2023-02-26T13:06:28.659Z,1.17
2023-02-26T13:07:49.940Z,1.20
2023-02-26T13:09:26.680Z,1.38
2023-02-26T13:10:33.232Z,1.55
2023-02-26T13:11:44.817Z,1.73
2023-02-26T13:13:00.172Z,1.50
2023-02-26T13:14:11.808Z,0.93
2023-02-26T13:15:26.465Z,1.27
2023-02-26T13:16:44.111Z,1.20
2023-02-26T13:17:55.718Z,1.50
2023-02-26T13:19:11.657Z,1.40
2023-02-26T13:20:20.466Z,1.40
2023-02-26T13:21:29.535Z,1.55
2023-02-26T13:22:48.779Z,1.95
2023-02-26T13:23:54.109Z,1.30
2023-02-26T13:25:12.733Z,1.60
2023-02-26T13:26:16.169Z,1.23
2023-02-26T13:27:18.946Z,1.50
2023-02-26T13:28:42.198Z,2.10
2023-02-26T13:29:59.940Z,1.60
2023-02-26T13:31:04.130Z,1.55
2023-02-26T13:32:28.133Z,1.63
2023-02-26T13:33:33.904Z,1.33
2023-02-26T13:34:54.465Z,1.58
2023-02-26T13:35:57.702Z,1.45
2023-02-26T13:37:01.125Z,1.58
2023-02-26T13:38:20.692Z,1.42
2023-02-26T13:40:02.564Z,1.60
2023-02-26T13:41:25.347Z,1.50
2023-02-26T13:43:05.705Z,1.48
2023-02-26T13:44:38.663Z,1.98
2023-02-26T13:45:56.385Z,1.90
2023-02-26T13:47:16.927Z,1.83
2023-02-26T13:48:22.656Z,1.90
2023-02-26T13:49:49.075Z,1.60
2023-02-26T13:51:04.254Z,1.65
2023-02-26T13:52:26.513Z,1.42
2023-02-26T13:53:40.786Z,1.75
2023-02-26T13:54:45.968Z,1.75
2023-02-26T13:55:49.396Z,1.52
2023-02-26T13:57:06.922Z,1.40
2023-02-26T13:58:24.294Z,1.40
2023-02-26T13:59:43.847Z,1.42
2023-02-26T14:00:48.478Z,1.67
2023-02-26T14:02:00.890Z,1.70
2023-02-26T14:03:16.337Z,1.73
2023-02-26T14:04:22.535Z,1.33
2023-02-26T14:05:30.752Z,1.80
2023-02-26T14:06:43.706Z,1.90
2023-02-26T14:07:48.658Z,1.67
2023-02-26T14:08:56.415Z,1.73
2023-02-26T14:10:05.309Z,2.17
2023-02-26T14:11:28.715Z,2.00
2023-02-26T14:12:43.407Z,2.22
2023-02-26T14:14:07.144Z,2.28
2023-02-26T14:15:12.634Z,2.08
2023-02-26T14:16:28.141Z,2.75
2023-02-26T14:17:36.535Z,2.47
2023-02-26T14:18:48.416Z,1.98
2023-02-26T14:19:53.446Z,2.13
2023-02-26T14:21:28.399Z,2.38
2023-02-26T14:22:31.220Z,2.42
2023-02-26T14:23:37.616Z,2.17
2023-02-26T14:24:46.727Z,2.63
2023-02-26T14:25:52.871Z,1.77
2023-02-26T14:27:11.402Z,1.90
2023-02-26T14:28:26.411Z,2.10
2023-02-26T14:29:43.248Z,2.58
2023-02-26T14:30:52.393Z,1.30
2023-02-26T14:32:02.251Z,2.10
2023-02-26T14:33:14.005Z,2.22
2023-02-26T14:34:25.472Z,1.80
2023-02-26T14:35:28.873Z,2.13
2023-02-26T14:36:49.163Z,1.95
2023-02-26T14:38:36.368Z,2.03
2023-02-26T14:39:57.996Z,2.13
2023-02-26T14:41:06.339Z,2.10
2023-02-26T14:42:19.404Z,2.67
2023-02-26T14:43:32.067Z,1.65
2023-02-26T14:44:41.874Z,1.83
2023-02-26T14:45:46.146Z,2.72
2023-02-26T14:46:50.191Z,2.13
2023-02-26T14:47:52.849Z,1.70
2023-02-26T14:48:55.499Z,1.85
2023-02-26T14:50:00.498Z,1.77
2023-02-26T14:51:05.945Z,1.17
2023-02-26T14:52:32.715Z,1.42
2023-02-26T14:53:54.076Z,1.42
2023-02-26T14:55:21.545Z,1.83
2023-02-26T14:57:01.239Z,1.50
2023-02-26T14:58:41.811Z,1.92
2023-02-26T14:59:55.333Z,2.60
2023-02-26T15:01:20.618Z,1.52
2023-02-26T15:02:32.881Z,1.67
2023-02-26T15:03:52.661Z,1.27
2023-02-26T15:05:17.296Z,1.50
2023-02-26T15:06:41.415Z,1.80
2023-02-26T15:07:52.561Z,1.65
2023-02-26T15:09:21.819Z,1.88
2023-02-26T15:10:48.277Z,1.88
2023-02-26T15:12:15.386Z,1.45
2023-02-26T15:13:36.727Z,1.73
2023-02-26T15:14:50.306Z,1.83
2023-02-26T15:15:56.851Z,1.48
2023-02-26T15:17:11.152Z,1.52
2023-02-26T15:18:35.810Z,1.50
2023-02-26T15:20:16.762Z,2.15
2023-02-26T15:21:41.106Z,1.45
2023-02-26T15:22:55.947Z,1.27
2023-02-26T15:23:59.769Z,1.95
2023-02-26T15:25:03.505Z,2.38
2023-02-26T15:26:08.088Z,1.48
2023-02-26T15:27:17.037Z,1.92
2023-02-26T15:28:36.931Z,2.15
2023-02-26T15:29:41.241Z,1.70